Tuesday, January 17, 2017, 3:50 AM EST
Back to Local

KPTW, Pottstown Limerick Airport

Location: Royersford, PA, United States Lat: 40.233
Local Time: 3:50 AM EST ( 8:50 GMT) Lon: -75.55
Time Zone: US/Eastern Elev: 291 ft

Show me the last for .
Show Decoded

2017-01-17 02:54 METAR KPTW 170754Z AUTO 00000KT 8SM OVC019 02/M02 A3027 RMK AO2 SLP251 T00221017
                 =
2017-01-17 01:54 METAR KPTW 170654Z AUTO 00000KT 8SM OVC020 02/M03 A3028 RMK AO2 SLP253 T00171028
                 =
2017-01-17 00:54 METAR KPTW 170554Z AUTO 00000KT 8SM BKN022 OVC030 02/M03 A3029 RMK AO2 SLP258
                 60000 T00221028 10028 20017 58018 =
2017-01-17 00:43 METAR KPTW 170543Z AUTO 00000KT 8SM BKN024 OVC032 02/M03 A3029 RMK AO2 T00221028
                 =
2017-01-16 23:54 METAR KPTW 170454Z AUTO 00000KT 8SM OVC040 02/M03 A3031 RMK AO2 RAB29E38 SLP263
                 P0000 T00171033 400501089 =
2017-01-16 23:16 METAR KPTW 170416Z AUTO 00000KT 9SM SCT028 OVC043 02/M04 A3033 RMK AO2 T00221039
                 =
2017-01-16 22:54 METAR KPTW 170354Z AUTO 00000KT 9SM BKN027 OVC043 02/M04 A3034 RMK AO2 RAE06
                 SLP274 P0000 T00221039 =
2017-01-16 22:34 METAR KPTW 170334Z AUTO 00000KT 9SM BKN026 OVC044 02/M03 A3034 RMK AO2 RAE06
                 P0000 T00171033 =
2017-01-16 21:54 METAR KPTW 170254Z AUTO 20003KT 9SM -RA FEW030 BKN048 OVC080 02/M04 A3034 RMK
                 AO2 RAB36 SLP275 P0000 60000 T00221044 56006 =
2017-01-16 20:54 METAR KPTW 170154Z AUTO 00000KT 10SM FEW022 OVC055 02/M06 A3035 RMK AO2 SLP278
                 T00221061 =
2017-01-16 19:54 METAR KPTW 170054Z AUTO 21003KT 9SM FEW024 OVC080 02/M06 A3035 RMK AO2 SLP280
                 T00221056 =
2017-01-16 19:19 METAR KPTW 170019Z AUTO 00000KT 9SM SCT024 BKN031 OVC080 03/M05 A3035 RMK AO2
                 T00281050 =
2017-01-16 19:12 METAR KPTW 170012Z AUTO 19003KT 9SM BKN024 BKN031 OVC080 03/M05 A3035 RMK AO2
                 T00281050 =
2017-01-16 18:54 METAR KPTW 162354Z AUTO 00000KT 9SM FEW025 OVC031 03/M05 A3036 RMK AO2 SLP283
                 T00281050 10050 20028 58005 =
2017-01-16 18:21 METAR KPTW 162321Z AUTO 00000KT 9SM OVC031 03/M05 A3037 RMK AO2 T00331050 =
2017-01-16 17:54 METAR KPTW 162254Z AUTO 22003KT 9SM OVC027 03/M05 A3037 RMK AO2 SLP285 T00331050
                 =
2017-01-16 16:54 METAR KPTW 162154Z AUTO 24004KT 8SM OVC024 04/M05 A3037 RMK AO2 SLP287 T00391050
                 =
2017-01-16 15:54 METAR KPTW 162054Z AUTO 25003KT 9SM OVC026 04/M06 A3038 RMK AO2 SLP287 T00441056
                 56012 =
2017-01-16 14:54 METAR KPTW 161954Z AUTO 00000KT 9SM OVC029 05/M05 A3038 RMK AO2 SLP288 T00501050
                 =
2017-01-16 14:33 METAR KPTW 161933Z AUTO 00000KT 9SM OVC029 04/M05 A3038 RMK AO2 T00441050 =
2017-01-16 13:54 METAR KPTW 161854Z AUTO 30004KT 9SM SCT030 04/M05 A3039 RMK AO2 SLP293 T00441050
                 =
2017-01-16 12:54 METAR KPTW 161754Z AUTO 19003KT 8SM CLR 03/M05 A3041 RMK AO2 SLP300 I6000
                 T00331050 10039 21089 58026 =
2017-01-16 11:54 METAR KPTW 161654Z AUTO 31004KT 8SM CLR 02/M06 A3045 RMK AO2 SLP313 T00221061 =
2017-01-16 10:54 METAR KPTW 161554Z AUTO 00000KT 7SM CLR 01/M06 A3048 RMK AO2 SLP323 T00061056 =
2017-01-16 09:54 METAR KPTW 161454Z AUTO 00000KT 5SM HZ CLR M02/M05 A3049 RMK AO2 SLP326 I3000
                 T10171050 53007 =
2017-01-16 08:54 METAR KPTW 161354Z AUTO 00000KT 5SM BR CLR M04/M06 A3048 RMK AO2 SLP322
                 T10441061 =
2017-01-16 07:54 METAR KPTW 161254Z AUTO 00000KT 4SM BR CLR M08/M09 A3048 RMK AO2 SLP323 I1000
                 T10781094 =
2017-01-16 06:54 METAR KPTW 161154Z AUTO 00000KT 6SM BR CLR M08/M10 A3047 RMK AO2 SLP320 I1000
                 I6000 T10831100 11061 21083 53004 =
2017-01-16 05:54 METAR KPTW 161054Z AUTO 00000KT 6SM BR CLR M08/M10 A3046 RMK AO2 SLP315 I1000
                 T10831100 =
2017-01-16 04:54 METAR KPTW 160954Z AUTO 00000KT 6SM BR CLR M08/M09 A3045 RMK AO2 SLP312 I1000
                 T10781089 =
2017-01-16 03:54 METAR KPTW 160854Z AUTO 00000KT 6SM BR CLR M08/M09 A3046 RMK AO2 SLP315 I1000
                 I3000 T10781089 50005 =

Support USWX by starting your Amazon purchase here.